This is the latest recevied weather packets stored in our database for station/object N4AR. If no packets are shown the sender has not sent any weather packets the latest 10 day(s).
| Time | Temp. | Humidity | Pressure | Rain* | Wind** | Luminosity | Snow |
|---|---|---|---|---|---|---|---|
| 1777563860 | 17.22° C | 71% | 1009.8 hPa | 0 mm | - | 153 W/m² | - |
| 1777563556 | 17.78° C | 72% | 1009.8 hPa | 0 mm | - | 167 W/m² | - |
| 1777563255 | 17.78° C | 71% | 1009.7 hPa | 0 mm | - | 199 W/m² | - |
| 1777562952 | 17.22° C | 75% | 1009.9 hPa | 0 mm | - | 234 W/m² | - |
| 1777562648 | 17.22° C | 74% | 1009.7 hPa | 0 mm | - | 207 W/m² | - |
| 1777562348 | 16.67° C | 73% | 1009.9 hPa | 0 mm | - | 174 W/m² | - |
| 1777562044 | 16.67° C | 74% | 1009.8 hPa | 0 mm | - | 150 W/m² | - |
| 1777561741 | 17.22° C | 71% | 1009.6 hPa | 0 mm | - | 138 W/m² | - |
| 1777561436 | 17.22° C | 73% | 1009.8 hPa | 0 mm | - | 209 W/m² | - |
| 1777561132 | 17.22° C | 74% | 1009.8 hPa | 0 mm | - | 185 W/m² | - |
| 1777560827 | 17.22° C | 77% | 1010 hPa | 0 mm | - | 135 W/m² | - |
| 1777560525 | 17.22° C | 73% | 1009.6 hPa | 0 mm | - | 148 W/m² | - |
| 1777560222 | 16.67° C | 75% | 1009.9 hPa | 0 mm | - | 170 W/m² | - |
| 1777559919 | 16.67° C | 75% | 1009.9 hPa | 0 mm | - | 200 W/m² | - |
| 1777559614 | 16.67° C | 74% | 1010 hPa | 0 mm | - | 147 W/m² | - |
| 1777559313 | 16.67° C | 76% | 1009.5 hPa | 0 mm | - | 142 W/m² | - |
| 1777559008 | 16.67° C | 75% | 1009.5 hPa | 0 mm | - | 162 W/m² | - |
| 1777558704 | 16.67° C | 76% | 1009.6 hPa | 0 mm | - | 160 W/m² | - |
| 1777558400 | 16.67° C | 80% | 1010.1 hPa | 0 mm | - | 139 W/m² | - |
| 1777558096 | 16.67° C | 79% | 1009.8 hPa | 0 mm | - | 145 W/m² | - |
| 1777557793 | 16.67° C | 79% | 1009.6 hPa | 0 mm | - | 144 W/m² | - |
| 1777557490 | 16.67° C | 79% | 1009.7 hPa | 0 mm | - | 156 W/m² | - |
| 1777557186 | 16.67° C | 81% | 1009.6 hPa | 0 mm | - | 125 W/m² | - |
| 1777556882 | 16.67° C | 82% | 1009.8 hPa | 0 mm | - | 114 W/m² | - |
| 1777556578 | 16.11° C | 82% | 1009.6 hPa | 0 mm | - | 135 W/m² | - |
* Rain latest hour (hover to see other rain measurements)
** Current wind speed in m/s (hover to see current wind gust speed)